• Join FlightAware (Why Join?)
  • Login
  • US Flag 
10:29AM EDT


 

Airport Tracker/Info


-or-


 

Live Flight TrackerFlight Track Log ✈ N1881Q ✈ 07-Jul-2013 ✈ KSRQ - KITH

Flight Track Log - Related Links

Times and Time Zones

All times are in EDT time to prevent confusion due to time zone crossing. See the N1881Q flight status page for this flight to view local times or setup timezone preferences in your user account.

Time Position Orientation Groundspeed Altitude Reporting Facility
EDT Latitude Longitude Course Direction KTS MPH feet Rate Location/Type
10:41AM 27.3833 -82.5500 146° Southeast 175 201 700  Level Tampa TRACON
10:42AM 27.3167 -82.5000 146° Southeast 257 296 3,600 2,400 Climbing Tampa TRACON
10:43AM 27.2833 -82.5500 233° Southwest 276 318 6,100 2,520 Climbing Tampa TRACON
10:44AM 27.2800 -82.6606 268° West 222 255 9,100 2,640 Climbing Miami Center
10:45AM 27.3492 -82.7061 330° Northwest 234 269 12,100 12,900 Climbing Miami Center
10:46AM 27.4356 -82.7361 343° North 251 289 35,000 1,800 Climbing Miami Center
10:47AM 27.5242 -82.7664 343° North 292 336 15,800 -8,640 Descending Miami Center
10:48AM 27.6186 -82.8042 340° North 328 377 17,800 1,620 Climbing Miami Center
10:50AM 27.8264 -82.8808 342° North 352 405 21,000 1,740 Climbing Jacksonville Center
10:51AM 27.9289 -82.8925 354° North 365 420 23,400 1,740 Climbing Jacksonville Center
10:52AM 28.0289 -82.8783 North 356 410 24,500 900 Climbing Jacksonville Center
10:53AM 28.1333 -82.8619 North 367 422 25,200 1,260 Climbing Jacksonville Center
10:54AM 28.2417 -82.8503 North 374 430 27,100 1,500 Climbing Jacksonville Center
10:55AM 28.3461 -82.8336 North 374 430 28,300 1,080 Climbing Jacksonville Center
10:56AM 28.4525 -82.8217 North 380 437 29,300 1,080 Climbing Jacksonville Center
10:57AM 28.5611 -82.8100 North 385 443 30,500 840 Climbing Jacksonville Center
10:58AM 28.6717 -82.7933 North 390 449 31,000 840 Climbing Jacksonville Center
10:59AM 28.7822 -82.7764 North 390 449 32,200 1,200 Climbing Jacksonville Center
11:00AM 28.8908 -82.7644 North 390 449 33,400 840 Climbing Jacksonville Center
11:01AM 28.9992 -82.7503 North 390 449 33,900 300 Climbing Jacksonville Center
11:02AM 29.1142 -82.7358 North 396 456 34,100  Climbing Jacksonville Center
11:03AM 29.2350 -82.7189 North 416 479 34,000 -60 Descending Jacksonville Center
11:04AM 29.3603 -82.6994 North 433 498 34,000 180 Level Jacksonville Center
11:05AM 29.4856 -82.6850 North 444 511 34,400 480 Climbing Jacksonville Center
11:06AM 29.6108 -82.6728 North 449 517 35,000 300 Climbing Jacksonville Center
11:07AM 29.7361 -82.6581 North 449 517 35,000  Level Jacksonville Center
11:08AM 29.8592 -82.6364 North 444 511 35,000  Level Jacksonville Center
11:09AM 29.9886 -82.6192 North 449 517 35,000  Level Jacksonville Center
11:10AM 30.1158 -82.6069 North 454 522 35,000  Level Jacksonville Center
11:11AM 30.2475 -82.5897 North 459 528 35,000  Level Jacksonville Center
11:12AM 30.3600 -82.5747 North 464 534 35,000  Level Jacksonville Center
11:13AM 30.4894 -82.5550 North 464 534 35,000  Level Jacksonville Center
11:14AM 30.6125 -82.5111 17° North 459 528 35,000  Level Jacksonville Center
11:15AM 30.7356 -82.4575 21° North 459 528 35,000  Level Jacksonville Center
11:16AM 30.8586 -82.4036 21° North 464 534 35,000  Level Jacksonville Center
11:17AM 30.9836 -82.3594 17° North 464 534 35,000  Level Jacksonville Center
11:18AM 31.1111 -82.3733 355° North 458 527 35,000 300 Level Jacksonville Center
11:19AM 31.2386 -82.4089 347° North 458 527 35,700 900 Climbing Jacksonville Center
11:20AM 31.3744 -82.4375 350° North 458 527 36,800 600 Climbing Jacksonville Center
11:21AM 31.4936 -82.4539 353° North 451 519 37,000 60 Climbing Jacksonville Center
11:22AM 31.6144 -82.4119 16° North 436 502 37,000  Level Jacksonville Center
11:23AM 31.7289 -82.3431 27° Northeast 431 496 37,000  Level Jacksonville Center
11:24AM 31.8436 -82.2786 26° Northeast 451 519 37,000  Level Jacksonville Center
11:25AM 31.9475 -82.2144 28° Northeast 458 527 37,000  Level Jacksonville Center
11:26AM 32.0744 -82.1397 27° Northeast 458 527 37,000  Level Jacksonville Center
11:27AM 32.1911 -82.0728 26° Northeast 463 533 37,000  Level Jacksonville Center
11:28AM 32.2969 -82.0103 27° Northeast 463 533 37,000  Level Jacksonville Center
11:29AM 32.4258 -81.9328 27° Northeast 463 533 37,000  Level Jacksonville Center
11:30AM 32.5297 -81.8700 27° Northeast 463 533 37,000  Level Jacksonville Center
11:31AM 32.6567 -81.7919 27° Northeast 463 533 37,000  Level Jacksonville Center
11:32AM 32.7625 -81.7242 28° Northeast 468 539 37,000  Level Jacksonville Center
11:33AM 32.8997 -81.6803 15° North 463 533 37,000  Level Jacksonville Center
11:34AM 33.0311 -81.6661 North 463 533 37,000  Level Jacksonville Center
11:35AM 33.1625 -81.6544 North 463 533 37,000  Level Jacksonville Center
11:36AM 33.2792 -81.6353 North 463 533 37,000  Level Jacksonville Center
11:37AM 33.4106 -81.6111 North 463 533 37,000  Level Jacksonville Center
11:38AM 33.5331 -81.5544 21° North 457 526 37,000  Level Jacksonville Center
11:39AM 33.6489 -81.4706 31° Northeast 468 539 37,000  Level Jacksonville Center
11:40AM 33.7606 -81.3911 31° Northeast 468 539 37,000  Level Jacksonville Center
11:42AM 34.0286 -81.2039 30° Northeast 486 559 37,000  Level Atlanta Center
11:43AM 34.1417 -81.1225 31° Northeast 475 547 37,000  Level Atlanta Center
11:44AM 34.2564 -81.0431 30° Northeast 475 547 37,000  Level Atlanta Center
11:45AM 34.3836 -80.9506 31° Northeast 475 547 37,000  Level Atlanta Center
11:46AM 34.4964 -80.8731 30° Northeast 477 549 37,000  Level Atlanta Center
11:47AM 34.6131 -80.7831 32° Northeast 482 555 37,000  Level Atlanta Center
11:48AM 34.7258 -80.7053 30° Northeast 475 547 37,000  Level Atlanta Center
11:50AM 34.9411 -80.5478 31° Northeast 504 580 37,000  Level Washington Center
11:51AM 35.0594 -80.4636 30° Northeast 498 573 37,000  Level Washington Center
11:52AM 35.1714 -80.3764 32° Northeast 485 558 37,000  Level Washington Center
11:53AM 35.2894 -80.2919 30° Northeast 492 566 37,000  Level Washington Center
11:54AM 35.3819 -80.2233 31° Northeast 492 566 37,000  Level Washington Center
11:55AM 35.5214 -80.1219 31° Northeast 487 560 37,000  Level Washington Center
11:56AM 35.6394 -80.0367 30° Northeast 487 560 37,000  Level Washington Center
11:57AM 35.7553 -79.9533 30° Northeast 487 560 37,000  Level Washington Center
11:58AM 35.8711 -79.8675 31° Northeast 487 560 37,000  Level Washington Center
11:59AM 35.9869 -79.7789 32° Northeast 487 560 37,000  Level Washington Center
12:00PM 36.1047 -79.6925 31° Northeast 487 560 37,000  Level Washington Center
12:01PM 36.2203 -79.6058 31° Northeast 487 560 37,000  Level Washington Center
12:02PM 36.3378 -79.5192 31° Northeast 487 560 37,000  Level Washington Center
12:03PM 36.4514 -79.4267 33° Northeast 487 560 37,000  Level Washington Center
12:04PM 36.5669 -79.3392 31° Northeast 487 560 37,000  Level Washington Center
12:05PM 36.6739 -79.2564 32° Northeast 492 566 37,000  Level Washington Center
12:06PM 36.7869 -79.1708 31° Northeast 487 560 37,000  Level Washington Center
12:07PM 36.9044 -79.0803 32° Northeast 487 560 37,000  Level Washington Center
12:08PM 37.0303 -78.9844 31° Northeast 487 560 37,000  Level Washington Center
12:09PM 37.1453 -78.8931 32° Northeast 487 560 37,000  Level Washington Center
12:10PM 37.2603 -78.8067 31° Northeast 487 560 37,000  Level Washington Center
12:11PM 37.3647 -78.7250 32° Northeast 487 560 37,000  Level Washington Center
12:12PM 37.4797 -78.6381 31° Northeast 487 560 37,000  Level Washington Center
12:13PM 37.5947 -78.5458 32° Northeast 487 560 37,000  Level Washington Center
12:14PM 37.7242 -78.4536 29° Northeast 487 560 37,000  Level Washington Center
12:15PM 37.8506 -78.4006 18° North 475 547 37,000  Level Washington Center
12:16PM 37.9747 -78.3444 20° North 475 547 37,000  Level Washington Center
12:17PM 38.0833 -78.2536 33° Northeast 464 534 37,000  Level Washington Center
12:18PM 38.1919 -78.1517 36° Northeast 470 541 37,000  Level Washington Center
12:19PM 38.3003 -78.0497 36° Northeast 475 547 37,000  Level Washington Center
12:20PM 38.4086 -77.9500 36° Northeast 480 552 37,000  Level Washington Center
12:21PM 38.5147 -77.8525 36° Northeast 480 552 37,000  Level Washington Center
12:22PM 38.6250 -77.7522 35° Northeast 480 552 37,000  Level Washington Center
12:23PM 38.7333 -77.6489 37° Northeast 485 558 37,000  Level Washington Center
12:24PM 38.8453 -77.5481 35° Northeast 490 564 37,000  Level Washington Center
12:25PM 38.9550 -77.4708 29° Northeast 500 575 37,000  Level Washington Center
12:26PM 39.0886 -77.4636 North 468 539 37,000  Level Washington Center
12:28PM 39.3567 -77.4600 North 494 568 37,000  Level New York Center
12:29PM 39.4942 -77.4622 359° North 494 568 37,000  Level New York Center
12:30PM 39.6319 -77.4592 North 494 568 37,000  Level New York Center
12:31PM 39.7700 -77.4533 North 499 574 37,000  Level New York Center
12:32PM 39.9053 -77.4203 11° North 499 574 37,000  Level New York Center
12:33PM 40.0317 -77.3592 20° North 489 563 37,000  Level New York Center
12:34PM 40.1475 -77.2994 22° Northeast 489 563 37,000 -420 Level New York Center
12:35PM 40.2778 -77.2464 17° North 489 563 36,200 -1,320 Descending New York Center
12:36PM 40.4133 -77.2072 12° North 484 557 34,400 -1,620 Descending New York Center
12:37PM 40.5472 -77.1597 15° North 489 563 33,000 -1,440 Descending New York Center
12:38PM 40.6808 -77.1147 14° North 494 568 31,600 -1,020 Descending New York Center
12:39PM 40.8147 -77.0667 15° North 494 568 31,000 -720 Descending New York Center
12:40PM 40.9444 -77.0208 15° North 489 563 30,200 -1,860 Descending New York Center
12:41PM 41.0778 -76.9781 14° North 489 563 27,300 -2,940 Descending New York Center
12:42PM 41.2078 -76.9239 17° North 484 557 24,300 -2,820 Descending New York Center
12:43PM 41.3414 -76.8808 14° North 471 542 21,700 -2,400 Descending New York Center
12:44PM 41.4600 -76.8389 15° North 451 519 19,500 -2,220 Descending New York Center
12:45PM 41.5706 -76.7992 15° North 431 496 17,300 -1,380 Descending New York Center
12:46PM 41.6772 -76.7475 20° North 417 480 16,900 -660 Descending New York Center
12:47PM 41.7706 -76.6697 32° Northeast 396 456 16,100 -1,200 Descending New York Center
12:48PM 41.8756 -76.6094 23° Northeast 401 461 14,500 -1,860 Descending New York Center
12:49PM 41.9850 -76.5856 North 401 461 12,400 -2,100 Descending New York Center
12:50PM 42.0778 -76.5631 10° North 367 422 10,300 -2,400 Descending New York Center
12:51PM 42.1642 -76.5425 10° North 342 394 7,700 -2,220 Descending New York Center
12:52PM 42.2461 -76.5244 North 312 359 5,900 -1,800 Descending New York Center
12:53PM 42.3197 -76.5086 North 297 342 4,100 -1,200 Descending New York Center
12:54PM 42.3894 -76.4922 10° North 279 321 3,500 -780 Descending New York Center
12:55PM 42.4308 -76.4536 35° Northeast 216 249 2,600 -720 Descending New York Center
12:56PM 42.4775 -76.4353 16° North 191 220 2,200 7,140 Descending New York Center
12:57PM 42.5264 -76.4114 20° North 191 220 17,000 7,260 Climbing New York Center
12:58PM 42.5733 -76.3872 21° North 191 220 17,000  Level New York Center
12:59PM 42.6222 -76.3633 20° North 191 220 17,000  Level New York Center
01:00PM 42.6308 -76.3583 23° Northeast 191 220 17,000  Level New York Center
01:02PM 42.4833 -76.4500 211° Southwest  Level FlightAware Approximate
01:09PM 42.4914 -76.4587 211° Southwest  Level Estimated
01:10PM 42.4914 -76.4587 211° Southwest  Level Estimated
01:11PM 42.4914 -76.4587 211° Southwest  Level Estimated
01:12PM 42.4914 -76.4587 211° Southwest  Level Estimated
01:13PM 42.4914 -76.4587 211° Southwest  Level Estimated
01:14PM 42.4914 -76.4587 211° Southwest  Level Estimated
01:15PM 42.4914 -76.4587 211° Southwest  Level Estimated
01:16PM 42.4914 -76.4587 211° Southwest  Level Estimated